Time;durP1;ratioP1;P1;durP2;ratioP2;P2;SDS_P1;SDS_P2;PMS_P1;PMS_P2;Temp;Humidity;BMP_temperature;BMP_pressure;BME280_temperature;BME280_humidity;BME280_pressure;Samples;Min_cycle;Max_cycle;Signal;HPM_P1;HPM_P2
2021/09/13 00:00:17;;;;;;;20.70;16.45;;;;;;;16.96;75.23;99294.78;5031919;28;20165;-61
2021/09/13 00:02:42;;;;;;;21.33;16.10;;;;;;;16.93;75.49;99289.75;5032042;28;20117;-61
2021/09/13 00:05:08;;;;;;;25.35;16.83;;;;;;;16.96;75.90;99291.22;5032530;28;20033;-61
2021/09/13 00:07:34;;;;;;;22.83;16.42;;;;;;;16.97;75.58;99291.06;5032203;28;20052;-61
2021/09/13 00:09:59;;;;;;;23.80;16.98;;;;;;;16.98;75.49;99290.06;5032088;28;20049;-62
2021/09/13 00:12:25;;;;;;;23.48;17.00;;;;;;;16.82;75.34;99265.81;5031804;28;20064;-61
2021/09/13 00:14:50;;;;;;;25.52;16.27;;;;;;;16.95;75.46;99293.09;5032196;28;20029;-61
2021/09/13 00:17:16;;;;;;;24.00;16.25;;;;;;;16.88;75.63;99276.75;5031621;28;20428;-62
2021/09/13 00:19:41;;;;;;;21.17;15.90;;;;;;;16.92;75.57;99285.34;5031799;28;20040;-61
2021/09/13 00:22:07;;;;;;;20.40;15.48;;;;;;;16.87;75.55;99274.22;5032274;28;20539;-62
2021/09/13 00:24:32;;;;;;;21.83;16.27;;;;;;;16.90;75.87;99273.88;5032121;28;20048;-61
2021/09/13 00:27:11;;;;;;;22.98;15.65;;;;;;;16.92;75.58;99285.34;5031351;28;20435;-61
2021/09/13 00:29:36;;;;;;;24.35;16.23;;;;;;;16.91;75.50;99275.56;5032298;28;20116;-63
2021/09/13 00:32:02;;;;;;;22.40;15.98;;;;;;;16.89;75.33;99269.50;5032496;28;20365;-61
2021/09/13 00:34:28;;;;;;;21.40;16.58;;;;;;;16.90;75.55;99273.88;5031316;28;20148;-61
2021/09/13 00:36:54;;;;;;;22.98;15.88;;;;;;;16.88;75.82;99275.88;5031560;28;20453;-62
2021/09/13 00:39:20;;;;;;;19.27;15.77;;;;;;;16.75;75.52;99250.31;5031876;28;20036;-61
2021/09/13 00:41:45;;;;;;;19.85;16.65;;;;;;;16.89;75.61;99277.59;5031928;28;20025;-62
2021/09/13 00:44:11;;;;;;;19.20;15.82;;;;;;;16.90;75.48;99273.88;5031281;28;20029;-62
2021/09/13 00:46:36;;;;;;;22.25;15.88;;;;;;;16.90;75.59;99272.00;5031206;28;20048;-61
2021/09/13 00:49:02;;;;;;;21.70;16.42;;;;;;;16.90;75.59;99273.88;5031649;28;20025;-62
2021/09/13 00:51:27;;;;;;;23.52;16.80;;;;;;;16.90;75.70;99274.69;5031694;28;20056;-61
2021/09/13 00:53:54;;;;;;;23.80;16.63;;;;;;;16.90;75.57;99268.47;5031427;28;20022;-61
2021/09/13 00:56:19;;;;;;;20.38;16.05;;;;;;;16.90;75.76;99279.28;5031106;28;20364;-62
2021/09/13 00:58:46;;;;;;;22.92;16.83;;;;;;;16.90;75.71;99265.75;5029986;28;20025;-62
2021/09/13 01:01:11;;;;;;;21.50;16.52;;;;;;;16.87;75.64;99252.56;5031936;28;20469;-61
2021/09/13 01:03:36;;;;;;;20.00;16.13;;;;;;;16.88;75.59;99265.06;5031609;28;20026;-61
2021/09/13 01:06:02;;;;;;;25.80;16.80;;;;;;;16.85;75.50;99249.22;5031087;28;20373;-63
2021/09/13 01:08:27;;;;;;;23.38;16.58;;;;;;;16.67;75.55;99228.75;5031595;28;20774;-60
2021/09/13 01:10:55;;;;;;;19.15;16.25;;;;;;;16.81;75.90;99253.31;5031750;28;20021;-61
2021/09/13 01:13:21;;;;;;;22.52;16.98;;;;;;;16.78;75.82;99247.22;5031330;28;20048;-61
2021/09/13 01:15:46;;;;;;;20.75;15.95;;;;;;;16.79;75.99;99251.63;5029683;28;20385;-61
2021/09/13 01:18:12;;;;;;;24.77;17.00;;;;;;;16.81;76.03;99242.50;5031035;28;20477;-62
2021/09/13 01:20:37;;;;;;;20.65;16.35;;;;;;;16.80;75.93;99252.47;5031714;28;20021;-62
2021/09/13 01:23:08;;;;;;;20.15;17.17;;;;;;;16.84;75.92;99247.53;5031074;28;20036;-61
2021/09/13 01:25:37;;;;;;;22.48;17.20;;;;;;;16.82;76.19;99242.31;5030737;28;20033;-61
2021/09/13 01:28:03;;;;;;;21.92;16.52;;;;;;;16.79;75.89;99243.50;5031011;28;20021;-61
2021/09/13 01:30:30;;;;;;;22.70;16.25;;;;;;;16.59;75.74;99212.56;5030642;28;20099;-61
2021/09/13 01:32:55;;;;;;;22.45;16.25;;;;;;;16.72;75.79;99237.16;5029550;28;20033;-62
2021/09/13 01:35:21;;;;;;;21.83;16.08;;;;;;;16.74;75.70;99236.94;5030753;28;20369;-62
2021/09/13 01:37:46;;;;;;;21.67;16.60;;;;;;;16.74;75.87;99243.22;5030808;28;20127;-62
2021/09/13 01:40:12;;;;;;;20.15;15.75;;;;;;;16.72;75.97;99234.44;5030804;28;20021;-62
2021/09/13 01:42:38;;;;;;;24.90;17.13;;;;;;;16.70;76.00;99235.63;5030747;28;20121;-61
2021/09/13 01:45:04;;;;;;;22.75;16.58;;;;;;;16.69;76.13;99242.91;5029620;28;20025;-62
2021/09/13 01:47:30;;;;;;;19.90;16.33;;;;;;;16.68;76.25;99240.38;5030796;28;20026;-62
2021/09/13 01:49:55;;;;;;;22.27;15.93;;;;;;;16.62;76.22;99231.09;5030374;28;20029;-61
2021/09/13 01:52:21;;;;;;;19.38;15.50;;;;;;;16.59;76.53;99237.72;5031158;28;20060;-61
2021/09/13 01:54:46;;;;;;;19.35;15.10;;;;;;;16.55;77.00;99224.75;5030747;28;20096;-61
2021/09/13 01:57:11;;;;;;;21.38;15.65;;;;;;;16.36;76.56;99197.13;5030740;28;20358;-63
2021/09/13 01:59:37;;;;;;;21.00;14.63;;;;;;;16.48;76.91;99228.16;5035036;28;20017;-62
2021/09/13 02:02:02;;;;;;;20.48;15.45;;;;;;;16.45;76.90;99227.66;5034520;28;20140;-61
2021/09/13 02:04:29;;;;;;;19.90;15.25;;;;;;;16.47;76.95;99221.06;5034114;28;20025;-61
2021/09/13 02:06:55;;;;;;;23.95;15.52;;;;;;;16.47;76.95;99223.78;5034521;28;20017;-61
2021/09/13 02:09:20;;;;;;;20.17;14.90;;;;;;;16.49;76.80;99219.03;5034860;28;20024;-62
2021/09/13 02:11:46;;;;;;;20.23;15.25;;;;;;;16.52;77.03;99217.84;5033845;28;20030;-61
2021/09/13 02:14:11;;;;;;;20.83;15.13;;;;;;;16.52;76.81;99212.44;5034380;28;20037;-61
2021/09/13 02:16:37;;;;;;;17.80;14.77;;;;;;;16.50;76.79;99204.50;5034596;28;20048;-62
2021/09/13 02:19:02;;;;;;;20.75;14.77;;;;;;;16.54;76.76;99205.00;5034370;28;20458;-61
2021/09/13 02:21:28;;;;;;;20.10;14.82;;;;;;;16.53;76.52;99199.75;5055597;28;20352;-61
2021/09/13 02:23:53;;;;;;;22.30;15.02;;;;;;;16.50;76.60;99198.25;5072699;28;20035;-61
2021/09/13 02:26:19;;;;;;;18.70;14.93;;;;;;;16.45;76.61;99195.25;5073359;28;20020;-61
2021/09/13 02:28:44;;;;;;;17.55;14.48;;;;;;;16.42;76.50;99188.34;5073989;28;20411;-61
2021/09/13 02:31:10;;;;;;;18.95;14.45;;;;;;;16.26;76.29;99170.34;5073961;28;20025;-61
2021/09/13 02:33:35;;;;;;;17.35;13.80;;;;;;;16.43;76.63;99198.13;5073493;28;20024;-61
2021/09/13 02:36:01;;;;;;;17.77;14.68;;;;;;;16.36;76.96;99189.03;5074171;28;20028;-61
2021/09/13 02:38:27;;;;;;;19.98;14.68;;;;;;;16.38;76.80;99195.09;5073762;28;20028;-61
2021/09/13 02:40:52;;;;;;;19.23;14.15;;;;;;;16.36;77.08;99197.13;5073534;28;20531;-62
2021/09/13 02:43:17;;;;;;;18.60;14.18;;;;;;;16.35;76.99;99196.31;5073261;28;20024;-61
2021/09/13 02:45:43;;;;;;;18.77;15.18;;;;;;;16.33;76.98;99195.66;5074339;28;20108;-61
2021/09/13 02:48:08;;;;;;;20.73;14.23;;;;;;;16.30;77.13;99192.44;5074119;28;20123;-62
2021/09/13 02:50:34;;;;;;;19.13;14.18;;;;;;;16.31;77.03;99191.44;5073238;28;20025;-61
2021/09/13 02:52:59;;;;;;;21.23;14.38;;;;;;;16.29;76.96;99183.53;5073327;28;20056;-60
2021/09/13 02:55:25;;;;;;;20.00;14.25;;;;;;;16.30;77.08;99187.06;5073888;28;20521;-61
2021/09/13 02:57:52;;;;;;;17.52;14.82;;;;;;;16.28;77.03;99189.09;5073821;28;20031;-61
2021/09/13 03:00:17;;;;;;;19.15;15.57;;;;;;;16.28;77.14;99183.69;5071975;28;20495;-61
2021/09/13 03:02:43;;;;;;;18.30;14.77;;;;;;;16.30;77.19;99192.44;5073255;28;20112;-60
2021/09/13 03:05:10;;;;;;;23.50;15.60;;;;;;;16.31;77.07;99183.34;5073394;28;20035;-60
2021/09/13 03:07:36;;;;;;;20.13;15.43;;;;;;;16.28;77.14;99181.00;5073629;28;20107;-61
2021/09/13 03:10:04;;;;;;;22.58;15.70;;;;;;;16.34;77.24;99180.28;5072634;28;20521;-61
2021/09/13 03:12:33;;;;;;;21.75;15.63;;;;;;;16.33;77.00;99181.28;5072374;28;20044;-61
2021/09/13 03:15:04;;;;;;;17.45;14.80;;;;;;;16.40;76.81;99187.69;5073308;28;20025;-60
2021/09/13 03:17:29;;;;;;;21.25;14.70;;;;;;;16.39;76.88;99187.84;5072953;28;20020;-62
2021/09/13 03:19:54;;;;;;;18.20;14.73;;;;;;;16.45;76.90;99181.72;5071712;28;20033;-62
2021/09/13 03:22:20;;;;;;;19.63;15.27;;;;;;;16.50;76.77;99171.22;5072765;28;20074;-61
2021/09/13 03:24:45;;;;;;;23.83;15.45;;;;;;;16.54;76.25;99166.31;5073139;28;20103;-60
2021/09/13 03:27:11;;;;;;;22.02;16.13;;;;;;;16.54;75.86;99161.75;5073228;28;20090;-61
2021/09/13 03:29:36;;;;;;;19.13;15.20;;;;;;;16.68;75.69;99170.09;5072860;28;20032;-62
2021/09/13 03:32:02;;;;;;;19.35;14.70;;;;;;;16.70;75.50;99159.94;5072533;28;20529;-61
2021/09/13 03:34:29;;;;;;;18.50;14.57;;;;;;;16.83;75.30;99164.75;5072573;28;20024;-62
2021/09/13 03:36:54;;;;;;;16.05;14.32;;;;;;;16.88;75.04;99165.03;5072360;28;20036;-60
2021/09/13 03:39:20;;;;;;;22.13;15.65;;;;;;;16.98;74.42;99168.38;5072389;28;20365;-60
2021/09/13 03:41:46;;;;;;;20.67;15.13;;;;;;;17.13;73.84;99160.31;5072596;28;20020;-62
2021/09/13 03:44:11;;;;;;;20.33;14.20;;;;;;;17.10;73.32;99136.34;5072418;28;20028;-61
2021/09/13 03:46:36;;;;;;;20.27;14.07;;;;;;;17.45;72.77;99162.88;5072446;28;20464;-61
2021/09/13 03:49:02;;;;;;;19.25;14.73;;;;;;;17.53;71.98;99127.59;5072104;28;20456;-62
2021/09/13 03:51:27;;;;;;;18.42;14.18;;;;;;;17.88;70.70;99156.81;5072134;28;20509;-62
2021/09/13 03:53:53;;;;;;;21.33;14.82;;;;;;;17.91;70.33;99141.03;5072047;28;20039;-63
2021/09/13 03:56:18;;;;;;;17.67;14.65;;;;;;;18.08;70.07;99157.09;5072658;28;20082;-61
2021/09/13 03:58:44;;;;;;;23.13;14.93;;;;;;;18.14;69.58;99155.50;5072074;28;20082;-61
2021/09/13 04:01:09;;;;;;;20.90;14.88;;;;;;;18.19;69.47;99158.47;5071972;28;20107;-61
2021/09/13 04:03:45;;;;;;;16.30;13.02;;;;;;;18.26;68.93;99154.00;5072063;28;20368;-61
2021/09/13 04:06:20;;;;;;;18.83;13.52;;;;;;;18.31;68.82;99164.25;5072148;28;20017;-61
2021/09/13 04:11:37;;;;;;;17.48;13.68;;;;;;;18.44;68.42;99161.69;5072225;28;20039;-61
2021/09/13 04:14:02;;;;;;;20.45;14.57;;;;;;;18.47;68.24;99152.34;5072234;28;20044;-63
2021/09/13 04:16:27;;;;;;;20.10;13.48;;;;;;;18.51;68.00;99151.75;5071592;28;20035;-62
2021/09/13 04:18:53;;;;;;;18.08;14.05;;;;;;;18.52;67.61;99144.47;5071607;28;20383;-61
2021/09/13 04:21:18;;;;;;;19.08;13.75;;;;;;;18.58;67.61;99151.00;5071822;28;20016;-63
2021/09/13 04:23:44;;;;;;;22.50;14.43;;;;;;;18.45;67.28;99122.72;5071694;28;20364;-63
2021/09/13 04:26:09;;;;;;;17.90;13.80;;;;;;;18.65;66.86;99151.91;5071505;28;20459;-62
2021/09/13 04:28:35;;;;;;;19.42;14.25;;;;;;;18.60;66.66;99144.34;5071286;28;20500;-63
2021/09/13 04:31:00;;;;;;;20.63;13.63;;;;;;;18.59;66.56;99123.69;5071886;28;20101;-63
2021/09/13 04:33:26;;;;;;;17.05;13.43;;;;;;;18.82;66.42;99151.66;5071708;28;20027;-61
2021/09/13 04:35:51;;;;;;;21.92;13.85;;;;;;;18.87;66.19;99143.75;5071321;28;20032;-62
2021/09/13 04:38:17;;;;;;;16.58;13.48;;;;;;;18.93;65.25;99148.41;5071513;28;20032;-62
2021/09/13 04:40:42;;;;;;;16.55;13.25;;;;;;;19.01;65.58;99142.84;5071648;28;20024;-61
2021/09/13 04:43:08;;;;;;;19.13;13.90;;;;;;;19.02;65.18;99136.41;5071782;28;20058;-62
2021/09/13 04:45:33;;;;;;;17.20;14.07;;;;;;;19.06;65.09;99139.56;5071282;28;20025;-62
2021/09/13 04:47:58;;;;;;;20.33;13.88;;;;;;;18.97;64.63;99106.28;5071216;28;20047;-62
2021/09/13 04:50:24;;;;;;;20.10;14.35;;;;;;;19.19;64.29;99131.53;5071100;28;20035;-61
2021/09/13 04:52:49;;;;;;;20.50;14.18;;;;;;;19.12;64.00;99094.53;5071750;28;20085;-62
2021/09/13 04:55:15;;;;;;;20.65;13.82;;;;;;;19.24;63.44;99092.13;5070871;28;20029;-61
2021/09/13 04:57:40;;;;;;;17.50;13.77;;;;;;;19.46;63.19;99126.28;5071223;28;20020;-61
2021/09/13 05:00:06;;;;;;;20.55;13.00;;;;;;;19.55;62.56;99129.69;5071279;28;20029;-62
2021/09/13 05:02:32;;;;;;;18.23;14.07;;;;;;;19.55;62.05;99107.13;5043244;28;20048;-61
2021/09/13 05:04:57;;;;;;;19.88;13.40;;;;;;;19.90;61.58;99124.22;5031105;28;20025;-61
2021/09/13 05:07:23;;;;;;;17.10;13.23;;;;;;;20.08;60.68;99131.03;5033099;28;20203;-63
2021/09/13 05:09:48;;;;;;;20.27;13.73;;;;;;;20.29;59.80;99123.78;5040803;28;20349;-64
2021/09/13 05:12:13;;;;;;;17.67;13.25;;;;;;;20.47;59.48;99129.44;5040123;28;20041;-65
2021/09/13 05:14:39;;;;;;;18.50;13.10;;;;;;;20.67;58.36;99119.66;5040029;28;20041;-64
2021/09/13 05:17:04;;;;;;;17.55;12.73;;;;;;;21.04;57.17;99118.25;5039901;28;20378;-64
2021/09/13 05:19:31;;;;;;;19.13;13.23;;;;;;;21.32;55.86;99117.16;5040067;28;20025;-64
2021/09/13 05:21:57;;;;;;;14.90;12.15;;;;;;;21.56;54.86;99114.81;5040021;28;20039;-65
2021/09/13 05:24:22;;;;;;;20.25;13.00;;;;;;;21.86;54.02;99108.88;5039932;28;20029;-64
2021/09/13 05:26:47;;;;;;;17.85;12.68;;;;;;;22.35;52.72;99112.00;5040992;28;20018;-65
2021/09/13 05:29:13;;;;;;;17.65;12.88;;;;;;;23.62;49.31;99109.28;5037848;28;20604;-63
2021/09/13 05:31:38;;;;;;;17.15;11.82;;;;;;;24.66;46.34;99103.97;5038460;28;20128;-64
2021/09/13 05:34:04;;;;;;;17.90;11.93;;;;;;;24.96;44.77;99107.72;5043357;28;20021;-64
2021/09/13 05:36:29;;;;;;;18.55;11.70;;;;;;;24.70;45.09;99094.22;5044368;28;20079;-64
2021/09/13 05:38:55;;;;;;;15.52;11.35;;;;;;;24.37;45.71;99103.78;5045163;28;20051;-64
2021/09/13 05:41:20;;;;;;;22.45;13.80;;;;;;;24.27;45.75;99104.34;5041440;28;20113;-64
2021/09/13 05:43:46;;;;;;;20.65;12.07;;;;;;;24.37;45.46;99101.03;5035050;28;20032;-64
2021/09/13 05:46:12;;;;;;;18.17;11.75;;;;;;;24.58;44.72;99101.56;5034910;28;20025;-63
2021/09/13 05:48:38;;;;;;;15.70;10.85;;;;;;;25.25;43.63;99095.00;5042817;28;20493;-63
2021/09/13 05:51:03;;;;;;;16.63;12.07;;;;;;;26.85;39.49;99094.63;5048211;28;20146;-62
2021/09/13 05:53:29;;;;;;;18.65;11.75;;;;;;;28.07;37.18;99095.78;5054360;28;20032;-63
2021/09/13 05:55:54;;;;;;;16.83;11.13;;;;;;;28.24;36.17;99083.09;5052946;28;20036;-64
2021/09/13 05:58:19;;;;;;;13.52;10.88;;;;;;;29.13;34.67;99080.00;5054428;28;20112;-63
2021/09/13 06:00:45;;;;;;;17.08;10.70;;;;;;;30.66;32.15;99077.31;5051088;28;20108;-63
2021/09/13 06:03:10;;;;;;;17.50;10.38;;;;;;;31.48;30.48;99089.41;5034162;28;20484;-62
2021/09/13 06:05:36;;;;;;;15.95;10.32;;;;;;;32.36;28.64;99083.50;5041848;28;20108;-62
2021/09/13 06:08:03;;;;;;;13.55;10.00;;;;;;;32.90;27.44;99086.44;5034071;28;20128;-63
2021/09/13 06:10:29;;;;;;;13.43;9.57;;;;;;;32.33;28.71;99079.34;5033164;28;20029;-63
2021/09/13 06:12:54;;;;;;;12.50;10.05;;;;;;;31.38;29.72;99078.38;5033770;28;20045;-63
2021/09/13 06:15:20;;;;;;;15.98;10.13;;;;;;;30.06;31.89;99081.34;5033977;28;20426;-63
2021/09/13 06:17:46;;;;;;;15.10;10.88;;;;;;;28.83;34.11;99087.78;5033906;28;20587;-62
2021/09/13 06:20:12;;;;;;;15.20;10.57;;;;;;;27.77;36.23;99094.34;5033990;28;20322;-63
2021/09/13 06:22:38;;;;;;;15.15;10.57;;;;;;;27.22;37.90;99102.38;5033916;28;20085;-63
2021/09/13 06:25:04;;;;;;;17.73;11.70;;;;;;;26.84;38.04;99095.69;5053115;28;20024;-64
2021/09/13 06:27:30;;;;;;;20.02;11.25;;;;;;;26.75;38.38;99099.94;5053364;28;20039;-63
2021/09/13 06:29:55;;;;;;;17.85;11.50;;;;;;;26.50;38.97;99098.41;5052513;28;20464;-63
2021/09/13 06:32:20;;;;;;;18.02;11.98;;;;;;;26.29;39.63;99099.97;5051795;28;20056;-63
2021/09/13 06:34:46;;;;;;;20.02;12.18;;;;;;;26.08;39.83;99091.31;5052696;28;20101;-62
2021/09/13 06:37:12;;;;;;;19.15;12.02;;;;;;;25.83;40.22;99083.38;5036827;28;20037;-63
2021/09/13 06:39:38;;;;;;;14.80;10.90;;;;;;;25.73;40.49;99084.84;5043267;28;20040;-62
2021/09/13 06:42:04;;;;;;;20.45;11.52;;;;;;;25.98;40.13;99093.81;5033445;28;20045;-63
2021/09/13 06:44:30;;;;;;;21.48;11.23;;;;;;;26.54;38.71;99088.59;5045796;28;20025;-62
2021/09/13 06:47:07;;;;;;;16.95;11.60;;;;;;;27.11;37.24;99077.75;5034121;28;20085;-63
2021/09/13 06:49:33;;;;;;;19.92;11.35;;;;;;;27.16;36.83;99089.66;5043922;28;20364;-62
2021/09/13 06:51:59;;;;;;;18.55;11.70;;;;;;;26.60;38.09;99090.34;5040373;28;20497;-62
2021/09/13 06:54:26;;;;;;;15.43;11.55;;;;;;;25.84;39.61;99091.38;5043396;28;20013;-64
2021/09/13 06:56:53;;;;;;;20.30;12.00;;;;;;;25.11;41.19;99086.19;5044049;28;20035;-62
2021/09/13 06:59:19;;;;;;;19.25;11.48;;;;;;;24.44;42.45;99085.34;5041854;28;20064;-58
2021/09/13 07:01:45;;;;;;;20.25;12.10;;;;;;;24.01;43.50;99086.34;5061693;28;20441;-63
2021/09/13 07:04:10;;;;;;;19.20;11.90;;;;;;;23.71;44.24;99087.97;5068842;28;20048;-61
2021/09/13 07:06:36;;;;;;;16.10;11.65;;;;;;;23.55;45.01;99083.94;5056509;28;20024;-66
2021/09/13 07:09:01;;;;;;;20.15;11.05;;;;;;;23.43;45.10;99063.94;5065369;28;20048;-62
2021/09/13 07:11:27;;;;;;;18.27;11.65;;;;;;;23.54;45.32;99074.09;5062784;28;20039;-64
2021/09/13 07:13:54;;;;;;;19.70;12.20;;;;;;;23.76;44.90;99070.88;5053709;28;20485;-62
2021/09/13 07:16:20;;;;;;;20.92;11.75;;;;;;;24.32;43.43;99068.06;5065861;28;20071;-62
2021/09/13 07:18:47;;;;;;;22.02;11.60;;;;;;;24.86;42.11;99064.53;5050731;28;20045;-65
2021/09/13 07:21:12;;;;;;;16.30;11.43;;;;;;;25.40;40.99;99058.06;5051507;28;20104;-62
2021/09/13 07:23:38;;;;;;;20.23;11.98;;;;;;;25.75;39.45;99057.19;5063995;28;20242;-62
2021/09/13 07:26:04;;;;;;;22.35;11.43;;;;;;;26.09;39.17;99054.56;5056060;28;20475;-60
2021/09/13 07:28:29;;;;;;;23.88;11.65;;;;;;;26.61;37.86;99052.75;5067574;28;20028;-70
2021/09/13 07:30:55;;;;;;;17.40;10.55;;;;;;;27.01;36.71;99049.03;5047233;28;20039;-62
2021/09/13 07:33:20;;;;;;;18.42;10.80;;;;;;;27.55;35.06;99053.09;5046256;28;20037;-61
2021/09/13 07:35:46;;;;;;;15.52;9.75;;;;;;;29.82;30.83;99025.75;5061449;28;20040;-62
2021/09/13 07:38:11;;;;;;;19.15;9.60;;;;;;;33.16;25.88;99044.59;5055322;28;20388;-60
2021/09/13 07:40:37;;;;;;;18.08;9.50;;;;;;;35.68;22.18;99035.44;5067570;28;20385;-60
2021/09/13 07:43:03;;;;;;;17.17;9.35;;;;;;;37.59;20.26;99043.84;5058764;28;20029;-61
2021/09/13 07:45:29;;;;;;;14.55;9.35;;;;;;;38.53;18.49;99005.50;5060053;28;20028;-60
2021/09/13 07:47:54;;;;;;;12.75;8.93;;;;;;;39.23;17.61;99026.84;5056502;28;20029;-62
2021/09/13 07:50:20;;;;;;;15.95;9.90;;;;;;;39.46;17.64;99035.00;5067977;28;20497;-65
2021/09/13 07:52:45;;;;;;;11.27;9.30;;;;;;;39.47;17.22;99017.03;5043961;28;20141;-62
2021/09/13 07:55:11;;;;;;;14.57;8.23;;;;;;;38.94;17.58;99030.41;5069306;28;20033;-60
2021/09/13 07:57:37;;;;;;;13.00;8.60;;;;;;;37.56;19.36;99024.16;5058524;28;20401;-61
2021/09/13 08:00:04;;;;;;;13.15;9.45;;;;;;;36.09;20.99;99022.59;5067089;28;20044;-61
2021/09/13 08:02:31;;;;;;;18.27;9.30;;;;;;;34.69;22.60;99016.97;5054725;28;20024;-62
2021/09/13 08:04:59;;;;;;;14.40;9.30;;;;;;;33.56;24.16;99023.09;5063653;28;20044;-71
2021/09/13 08:07:25;;;;;;;14.73;9.55;;;;;;;32.26;25.81;99012.38;5053983;28;20033;-60
2021/09/13 08:09:51;;;;;;;12.20;9.50;;;;;;;31.21;27.51;99011.19;5047740;28;20095;-60
2021/09/13 08:12:16;;;;;;;13.07;9.68;;;;;;;30.18;28.84;99016.75;5067338;28;20162;-62
2021/09/13 08:14:42;;;;;;;13.40;9.90;;;;;;;29.39;30.11;99016.72;5045335;28;20068;-61
2021/09/13 08:17:08;;;;;;;11.50;9.10;;;;;;;28.76;30.88;99021.03;5046301;28;20033;-62
2021/09/13 08:19:33;;;;;;;15.95;9.77;;;;;;;28.06;31.80;98983.25;5047271;28;20041;-60
2021/09/13 08:21:59;;;;;;;16.52;9.23;;;;;;;27.79;32.92;99006.09;5061832;28;20029;-59
2021/09/13 08:24:24;;;;;;;12.02;9.43;;;;;;;27.51;33.44;99014.28;5054019;28;20538;-62
2021/09/13 08:26:50;;;;;;;15.57;9.43;;;;;;;27.31;33.91;98998.34;5065108;28;20028;-63
2021/09/13 08:29:17;;;;;;;15.65;10.25;;;;;;;27.07;34.05;98976.59;5059378;28;20038;-61
2021/09/13 08:31:43;;;;;;;14.30;9.20;;;;;;;27.14;34.56;99003.06;5056492;28;20041;-63
2021/09/13 08:34:09;;;;;;;15.00;9.90;;;;;;;26.92;34.70;99001.94;5044907;28;20548;-64
2021/09/13 08:36:34;;;;;;;20.63;9.90;;;;;;;26.82;35.13;98988.00;5048567;28;20103;-60
2021/09/13 08:39:00;;;;;;;15.98;9.65;;;;;;;26.79;35.35;98986.63;5059842;28;20022;-64
2021/09/13 08:41:25;;;;;;;17.88;9.65;;;;;;;26.80;35.19;98993.78;5036490;28;20029;-63
2021/09/13 08:43:53;;;;;;;14.70;9.82;;;;;;;26.80;35.12;99004.75;5064505;28;20051;-62
2021/09/13 08:46:23;;;;;;;14.55;9.82;;;;;;;26.69;35.18;98985.63;5038657;28;20028;-63
2021/09/13 08:48:52;;;;;;;12.00;8.93;;;;;;;26.75;34.75;98990.09;5061139;28;20043;-69
2021/09/13 08:51:30;;;;;;;14.10;8.73;;;;;;;26.74;35.38;98974.72;5049868;28;20041;-66
2021/09/13 08:54:01;;;;;;;12.07;9.27;;;;;;;26.87;35.10;98982.63;5062767;28;20024;-67
2021/09/13 08:57:02;;;;;;;14.38;9.23;;;;;;;26.82;34.13;98963.28;5059307;28;20085;-69
2021/09/13 08:59:23;;;;;;;13.73;8.80;;;;;;;26.70;34.67;98930.44;5051596;28;20041;-66
2021/09/13 09:01:51;;;;;;;12.50;8.48;;;;;;;26.90;33.63;98973.06;5063554;28;20473;-66
2021/09/13 09:04:17;;;;;;;11.60;8.40;;;;;;;26.84;33.80;98965.81;5057870;28;20029;-68
2021/09/13 09:06:44;;;;;;;14.70;8.88;;;;;;;26.73;32.91;98962.88;5056243;28;20036;-65
2021/09/13 09:09:15;;;;;;;9.40;7.43;;;;;;;26.63;33.41;98963.56;5066917;28;20060;-66
2021/09/13 09:12:01;;;;;;;11.50;8.10;;;;;;;26.78;33.76;98957.50;5038526;28;20025;-65
2021/09/13 09:14:42;;;;;;;14.05;8.30;;;;;;;26.65;32.96;98961.44;5059704;28;20053;-64
2021/09/13 09:17:25;;;;;;;13.57;8.05;;;;;;;26.56;33.03;98942.88;5064830;28;20051;-69
2021/09/13 09:20:10;;;;;;;8.73;7.82;;;;;;;26.34;33.44;98936.22;5023803;28;20082;-68
2021/09/13 09:22:42;;;;;;;11.27;7.50;;;;;;;26.28;33.16;98945.47;5057747;28;20029;-67
2021/09/13 09:25:09;;;;;;;16.40;8.15;;;;;;;26.30;33.51;98956.22;5064778;28;20091;-67
2021/09/13 09:27:58;;;;;;;13.25;7.80;;;;;;;26.40;33.08;98926.16;5048475;28;20431;-71
2021/09/13 09:30:46;;;;;;;14.00;7.60;;;;;;;26.48;33.29;98936.72;5056457;28;20115;-67
2021/09/13 09:33:17;;;;;;;13.40;7.75;;;;;;;26.42;32.91;98945.97;5064848;28;20020;-69
2021/09/13 09:35:54;;;;;;;17.38;8.10;;;;;;;26.42;33.08;98926.75;5053398;28;20594;-73
2021/09/13 09:38:34;;;;;;;10.70;8.35;;;;;;;26.40;33.12;98928.91;5057578;28;20108;-69
2021/09/13 09:41:04;;;;;;;10.32;8.20;;;;;;;26.19;33.20;98925.84;5063248;28;20036;-68
2021/09/13 09:43:31;;;;;;;10.98;8.02;;;;;;;26.00;33.98;98895.06;5050731;28;20052;-69
2021/09/13 09:45:58;;;;;;;14.13;8.15;;;;;;;26.12;34.17;98913.34;5062201;28;20583;-67
2021/09/13 09:48:31;;;;;;;14.05;8.50;;;;;;;26.32;33.62;98915.63;5050002;28;20115;-66
2021/09/13 09:50:57;;;;;;;12.63;7.72;;;;;;;26.40;33.26;98901.47;5061107;28;20391;-68
2021/09/13 09:53:28;;;;;;;10.27;8.43;;;;;;;26.46;33.48;98900.47;5053144;28;20033;-67
2021/09/13 09:56:09;;;;;;;16.30;8.68;;;;;;;26.62;32.97;98881.47;5063260;28;20020;-68
2021/09/13 09:58:34;;;;;;;11.85;8.63;;;;;;;26.80;32.48;98900.41;5062593;28;20380;-69
2021/09/13 10:01:00;;;;;;;16.08;8.60;;;;;;;26.89;32.44;98909.06;5054717;28;20017;-70
2021/09/13 10:03:31;;;;;;;13.07;10.90;;;;;;;26.94;32.31;98911.88;5066383;28;20033;-66
2021/09/13 10:05:57;;;;;;;14.18;8.90;;;;;;;26.83;32.48;98904.53;5057255;28;20024;-68
2021/09/13 10:08:23;;;;;;;14.48;8.27;;;;;;;26.92;32.44;98904.97;5059558;28;20043;-71
2021/09/13 10:10:49;;;;;;;12.85;8.55;;;;;;;27.04;31.86;98893.84;5064777;28;20025;-68
2021/09/13 10:13:14;;;;;;;11.00;8.02;;;;;;;27.18;31.41;98889.66;5053169;28;20041;-66
2021/09/13 10:15:40;;;;;;;12.00;8.38;;;;;;;27.43;31.46;98907.50;5047704;28;20496;-65
2021/09/13 10:18:06;;;;;;;12.50;8.05;;;;;;;27.58;30.53;98897.78;5040534;28;20031;-67
2021/09/13 10:20:32;;;;;;;9.80;8.05;;;;;;;27.32;30.47;98848.84;5061610;28;20467;-66
2021/09/13 10:22:58;;;;;;;15.38;8.68;;;;;;;27.63;30.23;98897.84;5068601;28;20024;-69
2021/09/13 10:25:29;;;;;;;12.95;8.25;;;;;;;27.71;29.91;98889.13;5069833;28;20025;-66
2021/09/13 10:28:04;;;;;;;11.77;7.97;;;;;;;27.71;30.14;98897.38;5060746;28;20112;-66
2021/09/13 10:30:29;;;;;;;10.80;7.38;;;;;;;27.65;29.32;98893.75;5061504;28;20477;-67
2021/09/13 10:33:12;;;;;;;11.55;7.80;;;;;;;27.73;29.97;98888.84;5065244;28;20032;-71
2021/09/13 10:35:58;;;;;;;10.73;7.72;;;;;;;27.60;30.08;98890.94;5027349;28;20035;-71
2021/09/13 10:38:42;;;;;;;;;;;;;;;27.84;30.32;98884.28;5061986;28;20102;-68
2021/09/13 10:41:07;;;;;;;10.07;7.07;;;;;;;27.39;29.60;98878.03;5069369;28;20383;-66
2021/09/13 10:43:33;;;;;;;9.15;7.25;;;;;;;27.33;29.89;98874.41;5054591;28;20016;-69
2021/09/13 10:45:58;;;;;;;13.55;7.82;;;;;;;27.44;29.84;98880.84;5055820;28;20039;-68
2021/09/13 10:48:24;;;;;;;11.15;7.25;;;;;;;27.15;29.55;98850.84;5062539;28;20098;-70
2021/09/13 10:50:57;;;;;;;18.63;7.55;;;;;;;27.12;29.88;98879.66;5046725;28;20031;-67
2021/09/13 10:53:22;;;;;;;18.25;7.32;;;;;;;26.88;30.18;98877.19;5069459;28;20067;-68
2021/09/13 10:55:54;;;;;;;11.98;6.72;;;;;;;26.84;30.65;98872.44;5059305;28;20150;-69
2021/09/13 10:58:37;;;;;;;13.55;7.70;;;;;;;27.01;30.56;98883.38;5061442;28;20461;-67
2021/09/13 11:01:06;;;;;;;13.05;7.75;;;;;;;26.76;30.42;98870.97;5067760;28;20032;-70
2021/09/13 11:03:36;;;;;;;12.80;7.43;;;;;;;26.70;30.58;98869.25;5050458;28;20482;-68
2021/09/13 11:06:08;;;;;;;14.65;8.02;;;;;;;26.79;31.01;98868.53;5064538;28;20036;-66
2021/09/13 11:08:42;;;;;;;9.10;7.18;;;;;;;26.77;31.31;98873.47;5033775;28;20519;-66
2021/09/13 11:11:10;;;;;;;15.82;7.65;;;;;;;26.71;31.53;98879.94;5065546;28;20041;-64
2021/09/13 11:13:37;;;;;;;13.18;7.55;;;;;;;26.64;31.58;98865.59;5052638;28;20033;-66
2021/09/13 11:16:03;;;;;;;11.07;7.40;;;;;;;26.60;31.37;98862.50;5044760;28;20158;-66
2021/09/13 11:18:32;;;;;;;12.60;7.82;;;;;;;26.70;31.80;98859.06;5043608;28;20041;-64
2021/09/13 11:21:18;;;;;;;11.93;7.18;;;;;;;26.83;31.51;98862.53;5045989;28;20378;-67